Hlavní strana
METAR-TAF:

METAR-TAF

Letiště :

Utti, Finsko

zeměpisná šířka: 60-54N, zeměpisná délka: 026-56E, výška: 100 m

Aktuální stav počasí

Zpráva byla vytvořena před 19 minutami, v 03:50 UTC
Jižní vítr 6 kt
Teplota 6°C
Vlhkost vzduchu 93%
Tlak 1022 hPa
Viditelnost 10 km a více
Zataženo ve výšce 2500 ft

METAR: EFUT 180350Z AUTO 19006KT 9999 OVC025 06/05 Q1022

Čas: 06:09 (04:09 UTC)

Předpověď počasí

Zpráva byla vytvořena před 1 hodinou a 33 minutami, v 02:36 UTC
Předpověď platná od 18 v 03 UTC do 18 v 12 UTC
Jihojihozápadní vítr 6 kt
Viditelnost 10 km a více
Zataženo ve výšce 1500 ft
Dočasný
od 18 v 03 UTC do 18 v 12 UTC
Oblačno až skoro zataženo ve výšce 600 ft
Pravděpodobnost 30%
od 18 v 07 UTC do 18 v 12 UTC
Viditelnost: 0500 m
ve výšce 200 ft
mlha

TAF: EFUT 180236Z 1803/1812 21006KT 9999 OVC015 TEMPO 1803/1812 BKN006 PROB30 1807/1812 0500 FG VV002

Stav a předpovědi počasí z více než 4 000 letišť (zprávy METAR a TAF).

Červené a žluté tečky na mapě představují dostupné meteorologické stanice.

Když kurzor umístíte na tečku, zobrazí se název stanice.

Pak kliknutím zobrazíte stav a předpověď počasí.

Chcete-li změnit mapu, kliknutím na zelené tlačítko se znaménkem +mapu přiblížíte, kliknutím na zelené tlačítko se znaménkem – mapu oddálíte a kliknutím na zelené šipky přejdete na sousední mapy.


METAR-TAF: